Time;durP1;ratioP1;P1;durP2;ratioP2;P2;SDS_P1;SDS_P2;PMS_P1;PMS_P2;Temp;Humidity;BMP_temperature;BMP_pressure;BME280_temperature;BME280_humidity;BME280_pressure;Samples;Min_cycle;Max_cycle;Signal;HPM_P1;HPM_P2
2022/08/15 00:01:33;;;;;;;0.00;0.00;;;22.20;99.90;;;;;;4981196;28;20441;-76
2022/08/15 00:04:11;;;;;;;0.00;0.00;;;22.20;99.90;;;;;;4981208;28;20451;-76
2022/08/15 00:06:59;;;;;;;0.00;0.00;;;22.10;99.90;;;;;;4981073;28;20436;-76
2022/08/15 00:09:29;;;;;;;0.00;0.00;;;22.10;99.90;;;;;;4980742;28;20475;-76
2022/08/15 00:12:18;;;;;;;0.00;0.00;;;22.10;99.90;;;;;;4980984;28;20471;-76
2022/08/15 00:15:04;;;;;;;0.00;0.00;;;22.10;99.90;;;;;;4980961;28;20486;-75
2022/08/15 00:17:36;;;;;;;0.00;0.00;;;22.00;99.90;;;;;;4981381;28;20555;-76
2022/08/15 00:20:15;;;;;;;0.00;0.00;;;22.00;99.90;;;;;;4982403;28;20569;-76
2022/08/15 00:22:58;;;;;;;0.00;0.00;;;22.00;99.90;;;;;;4981552;28;20500;-75
2022/08/15 00:25:29;;;;;;;0.00;0.00;;;22.00;99.90;;;;;;4981252;28;21027;-74
2022/08/15 00:28:02;;;;;;;0.00;0.00;;;21.90;99.90;;;;;;4980730;28;20729;-76
2022/08/15 00:30:31;;;;;;;0.00;0.00;;;21.90;99.90;;;;;;4980360;28;20479;-74
2022/08/15 00:33:18;;;;;;;0.00;0.00;;;21.90;99.90;;;;;;4980801;28;20755;-74
2022/08/15 00:35:56;;;;;;;0.00;0.00;;;21.80;99.90;;;;;;4980105;28;20474;-75
2022/08/15 00:38:44;;;;;;;0.00;0.00;;;21.80;99.90;;;;;;4980776;28;20505;-76
2022/08/15 00:44:06;;;;;;;0.00;0.00;;;21.70;99.90;;;;;;4980359;28;20448;-75
2022/08/15 00:46:37;;;;;;;0.00;0.00;;;21.70;99.90;;;;;;4979883;28;20768;-76
2022/08/15 00:49:08;;;;;;;0.00;0.00;;;21.60;99.90;;;;;;4979628;28;20478;-75
2022/08/15 00:51:43;;;;;;;0.00;0.00;;;21.60;99.90;;;;;;4980283;28;20533;-74
2022/08/15 00:54:25;;;;;;;0.00;0.00;;;21.50;99.90;;;;;;4979941;28;20483;-74
2022/08/15 00:57:19;;;;;;;0.00;0.00;;;21.50;99.90;;;;;;4980077;28;20594;-76
2022/08/15 01:00:11;;;;;;;0.00;0.00;;;21.40;99.90;;;;;;4979910;28;20443;-74
2022/08/15 01:03:02;;;;;;;0.00;0.00;;;21.40;99.90;;;;;;4979616;28;21013;-76
2022/08/15 01:05:30;;;;;;;0.00;0.00;;;21.30;99.90;;;;;;4980422;28;20879;-75
2022/08/15 01:08:01;;;;;;;0.00;0.00;;;21.30;99.90;;;;;;4979804;28;20873;-75
2022/08/15 01:10:33;;;;;;;0.00;0.00;;;21.30;99.90;;;;;;4979190;28;21026;-74
2022/08/15 01:13:05;;;;;;;0.00;0.00;;;21.30;99.90;;;;;;4979643;28;20455;-76
2022/08/15 01:15:52;;;;;;;0.00;0.00;;;21.20;99.90;;;;;;4979163;28;21044;-76
2022/08/15 01:18:20;;;;;;;0.00;0.00;;;21.20;99.90;;;;;;4979175;28;21025;-75
2022/08/15 01:21:07;;;;;;;0.00;0.00;;;21.20;99.90;;;;;;4979372;28;20558;-75
2022/08/15 01:23:44;;;;;;;0.00;0.00;;;21.20;99.90;;;;;;4979766;28;20573;-75
2022/08/15 01:26:25;;;;;;;0.00;0.00;;;21.10;99.90;;;;;;4979288;28;20609;-74
2022/08/15 01:29:13;;;;;;;0.00;0.00;;;21.10;99.90;;;;;;4979280;28;20548;-75
2022/08/15 01:31:45;;;;;;;0.00;0.00;;;21.10;99.90;;;;;;4979451;28;20761;-75
2022/08/15 01:34:16;;;;;;;0.00;0.00;;;21.00;99.90;;;;;;4978728;28;20468;-75
2022/08/15 01:36:48;;;;;;;0.00;0.00;;;21.00;99.90;;;;;;4979355;28;20435;-76
2022/08/15 01:39:23;;;;;;;0.00;0.00;;;21.00;99.90;;;;;;4978868;28;20459;-75
2022/08/15 01:42:00;;;;;;;0.00;0.00;;;20.90;99.90;;;;;;4979144;28;20435;-75
2022/08/15 01:44:35;;;;;;;0.00;0.00;;;20.90;99.90;;;;;;4979839;28;20717;-76
2022/08/15 01:47:32;;;;;;;0.00;0.00;;;20.90;99.90;;;;;;4978991;28;20454;-75
2022/08/15 01:50:08;;;;;;;0.00;0.00;;;20.90;99.90;;;;;;4979386;28;20449;-75
2022/08/15 01:52:43;;;;;;;0.00;0.00;;;20.80;99.90;;;;;;4978931;28;20439;-75
2022/08/15 01:55:37;;;;;;;0.00;0.00;;;20.80;99.90;;;;;;4985904;28;20478;-74
2022/08/15 01:58:12;;;;;;;0.00;0.00;;;20.70;99.90;;;;;;4980555;28;20455;-75
2022/08/15 02:00:50;;;;;;;0.00;0.00;;;20.70;99.90;;;;;;4979980;28;20451;-74
2022/08/15 02:03:19;;;;;;;0.00;0.00;;;20.60;99.90;;;;;;4979971;28;20443;-74
2022/08/15 02:05:49;;;;;;;0.00;0.00;;;20.60;99.90;;;;;;4979899;28;20544;-75
2022/08/15 02:08:25;;;;;;;0.00;0.00;;;20.60;99.90;;;;;;4980142;28;20463;-75
2022/08/15 02:11:06;;;;;;;0.00;0.00;;;20.60;99.90;;;;;;4980273;28;20474;-74
2022/08/15 02:13:54;;;;;;;0.00;0.00;;;20.60;99.90;;;;;;4980302;28;20482;-75
2022/08/15 02:21:42;;;;;;;0.00;0.00;;;20.50;99.90;;;;;;5037537;23;20587;-72
2022/08/15 02:24:13;;;;;;;0.00;0.00;;;20.40;99.90;;;;;;5001234;28;21093;-73
2022/08/15 02:26:48;;;;;;;0.00;0.00;;;20.40;99.90;;;;;;4998736;28;20528;-72
2022/08/15 02:29:20;;;;;;;0.00;0.00;;;20.40;99.90;;;;;;4998436;28;20465;-72
2022/08/15 02:31:53;;;;;;;0.00;0.00;;;20.30;99.90;;;;;;4997799;28;20458;-72
2022/08/15 02:34:24;;;;;;;0.00;0.00;;;20.30;99.90;;;;;;4998809;28;20446;-73
2022/08/15 02:37:18;;;;;;;0.00;0.00;;;20.20;99.90;;;;;;4999191;28;21054;-76
2022/08/15 02:39:52;;;;;;;0.00;0.00;;;20.30;99.90;;;;;;4999298;28;20997;-77
2022/08/15 02:42:25;;;;;;;0.00;0.00;;;20.20;99.90;;;;;;5000566;28;21153;-77
2022/08/15 02:44:56;;;;;;;0.00;0.00;;;20.20;99.90;;;;;;5000650;28;20444;-76
2022/08/15 02:47:23;;;;;;;0.00;0.00;;;20.10;99.90;;;;;;5001530;28;20461;-76
2022/08/15 02:49:52;;;;;;;0.00;0.00;;;20.20;99.90;;;;;;5000045;28;20934;-76
2022/08/15 02:52:20;;;;;;;0.00;0.00;;;20.20;99.90;;;;;;4999253;28;20971;-75
2022/08/15 02:54:49;;;;;;;0.00;0.00;;;20.20;99.90;;;;;;4998981;28;20459;-74
2022/08/15 02:57:27;;;;;;;0.00;0.00;;;20.20;99.90;;;;;;4998582;28;20917;-73
2022/08/15 02:59:57;;;;;;;0.00;0.00;;;20.20;99.90;;;;;;5002281;28;21052;-74
2022/08/15 03:02:25;;;;;;;0.00;0.00;;;20.20;99.90;;;;;;5002748;28;21070;-74
2022/08/15 03:04:58;;;;;;;0.00;0.00;;;20.10;99.90;;;;;;5001919;28;21346;-75
2022/08/15 03:07:27;;;;;;;0.00;0.00;;;20.10;99.90;;;;;;5002364;28;20900;-75
2022/08/15 03:09:55;;;;;;;0.00;0.00;;;20.00;99.90;;;;;;5002494;28;20898;-73
2022/08/15 03:12:25;;;;;;;0.00;0.00;;;20.00;99.90;;;;;;5001953;28;21147;-74
2022/08/15 03:15:00;;;;;;;0.00;0.00;;;20.00;99.90;;;;;;5002814;28;20480;-73
2022/08/15 03:17:29;;;;;;;0.00;0.00;;;20.00;99.90;;;;;;5002280;28;20477;-73
2022/08/15 03:20:05;;;;;;;0.00;0.00;;;19.90;99.90;;;;;;5003047;28;20450;-73
2022/08/15 03:22:41;;;;;;;0.00;0.00;;;19.80;99.90;;;;;;5002210;28;20457;-73
2022/08/15 03:25:14;;;;;;;0.00;0.00;;;19.80;99.90;;;;;;5002144;28;20440;-72
2022/08/15 03:27:42;;;;;;;0.00;0.00;;;19.80;99.90;;;;;;5001369;28;20484;-72
2022/08/15 03:30:14;;;;;;;0.00;0.00;;;19.80;99.90;;;;;;5001681;28;21146;-72
2022/08/15 03:32:48;;;;;;;0.00;0.00;;;19.80;99.90;;;;;;5002904;28;20453;-71
2022/08/15 03:35:21;;;;;;;0.00;0.00;;;19.80;99.90;;;;;;5002764;28;20520;-74
2022/08/15 03:37:54;;;;;;;0.00;0.00;;;19.80;99.90;;;;;;5002028;28;20521;-67
2022/08/15 03:40:32;;;;;;;0.00;0.00;;;19.70;99.90;;;;;;5002041;28;21078;-67
2022/08/15 03:43:02;;;;;;;0.00;0.00;;;19.70;99.90;;;;;;5002383;28;20502;-70
2022/08/15 03:45:45;;;;;;;0.00;0.00;;;19.70;99.90;;;;;;4993813;28;20477;-71
2022/08/15 03:48:17;;;;;;;0.00;0.00;;;19.70;99.90;;;;;;4993503;28;20461;-71
2022/08/15 03:50:50;;;;;;;0.00;0.00;;;19.70;99.90;;;;;;4996102;28;20582;-71
2022/08/15 03:53:27;;;;;;;0.00;0.00;;;19.70;99.90;;;;;;4995994;28;20484;-70
2022/08/15 03:55:57;;;;;;;0.00;0.00;;;19.70;99.90;;;;;;4988216;28;21052;-67
2022/08/15 03:58:27;;;;;;;0.00;0.00;;;19.60;99.90;;;;;;4994575;28;21150;-68
2022/08/15 04:01:01;;;;;;;0.00;0.00;;;19.60;99.90;;;;;;4981029;28;20458;-68
2022/08/15 04:03:31;;;;;;;0.00;0.00;;;19.60;99.90;;;;;;4986088;28;20544;-67
2022/08/15 04:06:06;;;;;;;0.00;0.00;;;19.60;99.90;;;;;;5000944;28;21282;-68
2022/08/15 04:08:35;;;;;;;0.00;0.00;;;19.60;99.90;;;;;;5000734;28;20494;-74
2022/08/15 04:11:28;;;;;;;0.00;0.00;;;19.60;99.90;;;;;;4989722;28;20469;-73
2022/08/15 04:14:06;;;;;;;0.00;0.00;;;19.60;99.90;;;;;;4990993;28;20695;-72
2022/08/15 04:16:56;;;;;;;0.00;0.00;;;19.60;99.90;;;;;;4991925;28;20463;-73
2022/08/15 04:19:32;;;;;;;0.00;0.00;;;19.60;99.90;;;;;;4997491;28;20784;-74
2022/08/15 04:22:16;;;;;;;0.00;0.00;;;19.60;99.90;;;;;;5000652;28;20458;-73
2022/08/15 04:25:06;;;;;;;0.00;0.00;;;19.60;99.90;;;;;;5000975;28;20726;-74
2022/08/15 04:27:46;;;;;;;0.00;0.00;;;19.60;99.90;;;;;;4997122;28;20525;-76
2022/08/15 04:30:22;;;;;;;0.00;0.00;;;19.60;99.90;;;;;;4981368;28;20458;-69
2022/08/15 04:32:51;;;;;;;0.00;0.00;;;19.60;99.90;;;;;;4981099;28;20481;-68
2022/08/15 04:35:28;;;;;;;0.00;0.00;;;19.60;99.90;;;;;;4980829;28;20786;-69
2022/08/15 04:37:57;;;;;;;0.00;0.00;;;19.60;99.90;;;;;;4994366;28;20511;-68
2022/08/15 04:40:28;;;;;;;0.00;0.00;;;19.60;99.90;;;;;;5000096;28;20446;-70
2022/08/15 04:43:18;;;;;;;0.00;0.00;;;19.60;99.90;;;;;;5000647;28;20449;-70
2022/08/15 04:45:46;;;;;;;0.00;0.00;;;19.70;99.90;;;;;;5000395;28;20442;-69
2022/08/15 04:48:17;;;;;;;0.00;0.00;;;19.70;99.90;;;;;;4982914;28;21059;-73
2022/08/15 04:50:50;;;;;;;0.00;0.00;;;19.70;99.90;;;;;;4997436;28;20442;-71
2022/08/15 04:53:20;;;;;;;0.00;0.00;;;19.70;99.90;;;;;;5000478;28;20685;-74
2022/08/15 04:55:59;;;;;;;0.00;0.00;;;19.80;99.90;;;;;;4986458;28;20451;-74
2022/08/15 04:58:28;;;;;;;0.00;0.00;;;19.80;99.90;;;;;;4980571;28;20609;-72
2022/08/15 05:01:16;;;;;;;0.00;0.00;;;19.80;99.90;;;;;;4990484;28;20446;-71
2022/08/15 05:03:46;;;;;;;0.00;0.00;;;19.80;99.90;;;;;;4995328;28;20728;-73
2022/08/15 05:06:22;;;;;;;0.00;0.00;;;19.80;99.90;;;;;;4999752;28;20829;-75
2022/08/15 05:09:00;;;;;;;0.00;0.00;;;19.80;99.90;;;;;;4992357;28;20521;-73
2022/08/15 05:11:29;;;;;;;0.00;0.00;;;19.90;99.90;;;;;;4981127;28;20828;-77
2022/08/15 05:14:17;;;;;;;0.00;0.00;;;19.90;99.90;;;;;;4986855;28;20770;-74
2022/08/15 05:17:05;;;;;;;0.00;0.00;;;19.90;99.90;;;;;;4997907;28;20477;-74
2022/08/15 05:19:37;;;;;;;0.00;0.00;;;20.00;99.90;;;;;;5002021;28;20481;-69
2022/08/15 05:22:05;;;;;;;0.00;0.00;;;20.00;99.90;;;;;;4992732;28;20473;-71
2022/08/15 05:24:33;;;;;;;0.00;0.00;;;20.00;99.90;;;;;;4999464;28;20838;-70
2022/08/15 05:27:01;;;;;;;0.00;0.00;;;20.10;99.90;;;;;;4999309;28;20923;-72
2022/08/15 05:29:30;;;;;;;0.00;0.00;;;20.10;99.90;;;;;;4998293;28;20978;-68
2022/08/15 05:31:59;;;;;;;0.00;0.00;;;20.20;99.90;;;;;;4991457;28;20494;-69
2022/08/15 05:34:28;;;;;;;0.00;0.00;;;20.20;99.90;;;;;;4999418;28;20727;-69
2022/08/15 05:37:12;;;;;;;0.00;0.00;;;20.30;99.90;;;;;;4994457;28;20820;-69
2022/08/15 05:39:44;;;;;;;0.00;0.00;;;20.30;99.90;;;;;;4979807;28;20463;-70
2022/08/15 05:42:22;;;;;;;0.00;0.00;;;20.40;99.90;;;;;;4979734;28;20505;-70
2022/08/15 05:45:08;;;;;;;0.00;0.00;;;20.50;99.90;;;;;;4979541;28;20826;-69
2022/08/15 05:47:41;;;;;;;0.00;0.00;;;20.60;99.90;;;;;;4987977;28;20557;-75
2022/08/15 05:50:15;;;;;;;0.00;0.00;;;20.60;99.90;;;;;;4992999;28;20437;-67
2022/08/15 05:52:51;;;;;;;0.00;0.00;;;20.70;99.90;;;;;;4989209;28;20945;-67
2022/08/15 05:55:34;;;;;;;0.00;0.00;;;20.80;99.90;;;;;;4988410;28;20502;-69
2022/08/15 05:58:22;;;;;;;0.00;0.00;;;20.90;99.90;;;;;;4987968;28;21076;-67
2022/08/15 06:01:16;;;;;;;0.00;0.00;;;21.00;99.90;;;;;;4987745;28;20842;-69
2022/08/15 06:03:52;;;;;;;0.00;0.00;;;21.00;99.90;;;;;;4979726;28;20506;-69
2022/08/15 06:06:25;;;;;;;0.00;0.00;;;21.10;99.90;;;;;;4979699;28;20442;-67
2022/08/15 06:09:02;;;;;;;0.00;0.00;;;21.20;99.90;;;;;;4980169;28;20458;-67
2022/08/15 06:11:36;;;;;;;0.00;0.00;;;21.30;99.90;;;;;;4979856;28;20462;-68
2022/08/15 06:14:14;;;;;;;0.00;0.00;;;21.40;99.90;;;;;;4986848;28;20589;-67
2022/08/15 06:16:52;;;;;;;0.00;0.00;;;21.50;99.90;;;;;;4990841;28;20684;-67
2022/08/15 06:19:26;;;;;;;0.00;0.00;;;21.60;99.90;;;;;;4993709;28;20965;-67
2022/08/15 06:22:12;;;;;;;0.00;0.00;;;21.70;99.90;;;;;;4989455;28;20538;-68
2022/08/15 06:24:50;;;;;;;0.00;0.00;;;21.80;99.90;;;;;;4990482;28;20444;-67
2022/08/15 06:27:32;;;;;;;0.00;0.00;;;21.90;99.90;;;;;;4987311;28;20434;-67
2022/08/15 06:30:19;;;;;;;0.00;0.00;;;22.00;99.90;;;;;;4984335;28;20464;-67
2022/08/15 06:32:56;;;;;;;0.00;0.00;;;22.10;99.90;;;;;;5003449;28;20508;-67
2022/08/15 06:35:32;;;;;;;0.00;0.00;;;22.20;99.90;;;;;;5004951;28;20438;-69
2022/08/15 06:38:14;;;;;;;0.00;0.00;;;22.40;99.90;;;;;;5005403;28;20509;-67
2022/08/15 06:41:11;;;;;;;0.00;0.00;;;22.40;99.90;;;;;;5005119;28;20430;-67
2022/08/15 06:43:41;;;;;;;0.00;0.00;;;22.50;99.90;;;;;;5002687;28;20822;-67
2022/08/15 06:46:10;;;;;;;0.00;0.00;;;22.70;99.90;;;;;;4985551;28;20757;-67
2022/08/15 06:48:59;;;;;;;0.00;0.00;;;22.80;99.90;;;;;;4985482;28;20457;-67
2022/08/15 06:51:34;;;;;;;0.00;0.00;;;22.90;99.90;;;;;;4985220;28;20453;-67
2022/08/15 06:54:17;;;;;;;0.00;0.00;;;23.10;99.90;;;;;;4985470;28;20460;-67
2022/08/15 06:57:13;;;;;;;0.00;0.00;;;23.20;99.90;;;;;;4985003;28;20456;-70
2022/08/15 06:59:56;;;;;;;0.00;0.00;;;23.20;99.90;;;;;;4985025;28;20473;-67
2022/08/15 07:02:37;;;;;;;0.00;0.00;;;23.30;99.90;;;;;;4984813;28;20429;-70
2022/08/15 07:05:23;;;;;;;0.00;0.00;;;23.40;99.90;;;;;;4984696;28;20888;-69
2022/08/15 07:08:03;;;;;;;0.00;0.00;;;23.50;99.90;;;;;;4984638;28;20553;-68
2022/08/15 07:10:41;;;;;;;0.00;0.00;;;23.60;99.90;;;;;;4990309;28;20450;-69
2022/08/15 07:13:21;;;;;;;0.00;0.00;;;23.70;99.90;;;;;;5004552;28;20466;-69
2022/08/15 07:15:56;;;;;;;0.00;0.00;;;23.90;99.90;;;;;;5004072;28;20474;-69
2022/08/15 07:18:34;;;;;;;0.00;0.00;;;24.00;99.90;;;;;;5002034;28;20551;-69
2022/08/15 07:21:06;;;;;;;0.00;0.00;;;24.10;99.90;;;;;;5003942;28;20526;-69
2022/08/15 07:23:59;;;;;;;0.00;0.00;;;24.30;99.90;;;;;;5004302;28;20458;-69
2022/08/15 07:26:29;;;;;;;0.00;0.00;;;24.40;99.90;;;;;;4989267;28;20444;-69
2022/08/15 07:29:00;;;;;;;0.00;0.00;;;24.50;99.90;;;;;;4984263;28;20674;-67
2022/08/15 07:31:36;;;;;;;0.00;0.00;;;24.50;99.90;;;;;;4984540;28;20440;-66
2022/08/15 07:34:24;;;;;;;0.00;0.00;;;24.60;99.90;;;;;;4984545;28;20984;-67
2022/08/15 07:36:58;;;;;;;0.00;0.00;;;24.70;99.90;;;;;;4988767;28;20867;-71
2022/08/15 07:39:34;;;;;;;0.00;0.00;;;24.80;99.90;;;;;;5004159;28;20487;-71
2022/08/15 07:42:12;;;;;;;0.00;0.00;;;25.00;99.90;;;;;;4986771;28;20468;-70
2022/08/15 07:45:06;;;;;;;0.00;0.00;;;25.00;99.90;;;;;;4982064;28;20845;-70
2022/08/15 07:47:36;;;;;;;0.00;0.00;;;25.10;99.90;;;;;;4995942;28;20552;-70
2022/08/15 07:50:31;;;;;;;0.00;0.00;;;25.20;99.90;;;;;;4993892;28;20487;-70
2022/08/15 07:53:06;;;;;;;0.00;0.00;;;25.30;99.90;;;;;;4983156;28;20451;-70
2022/08/15 07:55:43;;;;;;;0.00;0.00;;;25.40;99.90;;;;;;4987039;28;20518;-70
2022/08/15 07:58:33;;;;;;;0.00;0.00;;;25.50;99.90;;;;;;4992888;28;20476;-70
2022/08/15 08:01:12;;;;;;;0.00;0.00;;;25.60;99.90;;;;;;4995787;28;20752;-70
2022/08/15 08:04:06;;;;;;;0.00;0.00;;;25.60;99.90;;;;;;4994890;28;20718;-70
2022/08/15 08:06:56;;;;;;;0.00;0.00;;;25.70;99.90;;;;;;4995534;28;20446;-70
2022/08/15 08:09:29;;;;;;;0.00;0.00;;;25.80;99.90;;;;;;4990099;28;21037;-71
2022/08/15 08:12:09;;;;;;;0.00;0.00;;;25.90;99.90;;;;;;4989725;28;20482;-71
2022/08/15 08:14:48;;;;;;;0.00;0.00;;;26.10;99.90;;;;;;4991810;28;20968;-71
2022/08/15 08:17:30;;;;;;;0.00;0.00;;;26.10;99.90;;;;;;4988838;28;20444;-70
2022/08/15 08:20:27;;;;;;;0.00;0.00;;;26.20;99.90;;;;;;4995014;28;20741;-71
2022/08/15 08:23:01;;;;;;;0.00;0.00;;;26.30;99.90;;;;;;4992566;28;20482;-71
2022/08/15 08:25:35;;;;;;;0.00;0.00;;;26.40;99.90;;;;;;4992517;28;20984;-71
2022/08/15 08:28:31;;;;;;;0.00;0.00;;;26.50;99.90;;;;;;4991184;28;20447;-71
2022/08/15 08:31:07;;;;;;;0.00;0.00;;;26.70;99.90;;;;;;4985846;28;20433;-70
2022/08/15 08:33:48;;;;;;;0.00;0.00;;;26.70;99.90;;;;;;4989840;28;20455;-71
2022/08/15 08:36:29;;;;;;;0.00;0.00;;;26.80;99.90;;;;;;4987661;28;20460;-71
2022/08/15 08:39:27;;;;;;;0.00;0.00;;;26.80;99.90;;;;;;4989730;28;20526;-72
2022/08/15 08:42:12;;;;;;;0.00;0.00;;;26.80;99.90;;;;;;4993913;28;20525;-76
2022/08/15 08:45:06;;;;;;;0.00;0.00;;;26.80;99.90;;;;;;4981967;28;21142;-74
2022/08/15 08:48:11;;;;;;;0.00;0.00;;;27.00;99.90;;;;;;4987060;28;20452;-70
2022/08/15 08:50:50;;;;;;;0.00;0.00;;;27.10;99.90;;;;;;5001238;28;20472;-69
2022/08/15 08:53:30;;;;;;;0.00;0.00;;;27.30;99.90;;;;;;4992488;28;21067;-71
2022/08/15 08:56:14;;;;;;;0.00;0.00;;;27.40;99.90;;;;;;4991818;28;20445;-69
2022/08/15 08:59:09;;;;;;;0.00;0.00;;;27.50;99.90;;;;;;4990198;28;20585;-69
2022/08/15 09:01:38;;;;;;;0.00;0.00;;;27.60;99.90;;;;;;4988783;28;21117;-70
2022/08/15 09:04:10;;;;;;;0.00;0.00;;;27.60;99.90;;;;;;4993425;28;21010;-69
2022/08/15 09:06:46;;;;;;;0.00;0.00;;;27.80;99.90;;;;;;4989316;28;20470;-69
2022/08/15 09:09:25;;;;;;;0.00;0.00;;;27.90;99.90;;;;;;4990621;28;21066;-70
2022/08/15 09:11:57;;;;;;;0.00;0.00;;;27.90;99.90;;;;;;4989411;28;20474;-70
2022/08/15 09:14:31;;;;;;;0.00;0.00;;;28.00;99.90;;;;;;4996094;28;20471;-70
2022/08/15 09:17:21;;;;;;;0.00;0.00;;;28.10;99.90;;;;;;4991052;28;20452;-70
2022/08/15 09:20:05;;;;;;;0.00;0.00;;;28.20;99.90;;;;;;4992894;28;20520;-69
2022/08/15 09:22:40;;;;;;;0.00;0.00;;;28.30;99.90;;;;;;4991141;28;21099;-69
2022/08/15 09:25:09;;;;;;;0.00;0.00;;;28.30;99.90;;;;;;4987551;28;20488;-69
2022/08/15 09:27:47;;;;;;;0.00;0.00;;;28.40;99.90;;;;;;4990337;28;21590;-70
2022/08/15 09:30:27;;;;;;;0.00;0.00;;;28.40;99.90;;;;;;4990343;28;21144;-69
2022/08/15 09:33:30;;;;;;;0.00;0.00;;;28.50;99.90;;;;;;4988152;28;20434;-70
2022/08/15 09:36:16;;;;;;;0.00;0.00;;;28.50;99.90;;;;;;4987210;28;20469;-69
2022/08/15 09:39:06;;;;;;;0.00;0.00;;;28.60;99.90;;;;;;4989836;28;20516;-70
2022/08/15 09:41:56;;;;;;;0.00;0.00;;;28.50;99.90;;;;;;4984265;28;20452;-69
2022/08/15 09:44:41;;;;;;;0.00;0.00;;;28.60;99.90;;;;;;4992432;28;20459;-69
2022/08/15 09:47:57;;;;;;;0.00;0.00;;;28.70;99.90;;;;;;4981021;28;20544;-69
2022/08/15 09:50:40;;;;;;;0.00;0.00;;;28.80;99.90;;;;;;4980019;28;20517;-69
2022/08/15 09:53:23;;;;;;;0.00;0.00;;;28.90;99.90;;;;;;4998376;28;20517;-69
2022/08/15 09:55:53;;;;;;;0.00;0.00;;;29.00;99.90;;;;;;4999237;28;20442;-69
2022/08/15 09:58:24;;;;;;;0.00;0.00;;;29.00;99.90;;;;;;4998705;28;20497;-69
2022/08/15 10:01:07;;;;;;;0.00;0.00;;;29.10;99.90;;;;;;4990931;28;20473;-69
2022/08/15 10:03:54;;;;;;;0.00;0.00;;;29.10;99.90;;;;;;4989354;28;20453;-69
2022/08/15 10:06:32;;;;;;;0.00;0.00;;;29.20;99.90;;;;;;4991129;28;20684;-72
2022/08/15 10:09:21;;;;;;;0.00;0.00;;;29.30;99.90;;;;;;4991433;28;20457;-71
2022/08/15 10:12:23;;;;;;;0.00;0.00;;;29.30;99.90;;;;;;4999517;28;20460;-72
2022/08/15 10:15:04;;;;;;;0.00;0.00;;;29.30;99.90;;;;;;4994473;28;20507;-72
2022/08/15 10:17:42;;;;;;;0.00;0.00;;;29.40;99.90;;;;;;4997200;28;20987;-71
2022/08/15 10:20:58;;;;;;;0.00;0.00;;;29.40;99.90;;;;;;4987048;28;20481;-72
2022/08/15 10:23:32;;;;;;;0.00;0.00;;;29.50;99.90;;;;;;4992667;28;21032;-72
2022/08/15 10:26:28;;;;;;;0.00;0.00;;;29.60;99.90;;;;;;4989859;28;20715;-72
2022/08/15 10:29:24;;;;;;;0.00;0.00;;;29.70;99.90;;;;;;4990435;28;20458;-73
2022/08/15 10:31:55;;;;;;;0.00;0.00;;;29.70;99.90;;;;;;4990610;28;20463;-71
2022/08/15 10:34:55;;;;;;;0.00;0.00;;;29.70;99.90;;;;;;4983949;28;20435;-71
2022/08/15 10:37:30;;;;;;;0.00;0.00;;;29.70;99.90;;;;;;4988364;28;20439;-71
2022/08/15 10:40:15;;;;;;;0.00;0.00;;;29.80;99.90;;;;;;4985610;28;20477;-72
2022/08/15 10:43:01;;;;;;;0.00;0.00;;;29.90;99.90;;;;;;4988835;28;20439;-72
2022/08/15 10:45:41;;;;;;;0.00;0.00;;;29.90;99.90;;;;;;4981915;28;20484;-72
2022/08/15 10:48:24;;;;;;;0.00;0.00;;;30.00;99.90;;;;;;4985327;28;20473;-72
2022/08/15 10:51:25;;;;;;;0.00;0.00;;;30.00;99.90;;;;;;4997162;28;20964;-72
2022/08/15 10:54:03;;;;;;;0.00;0.00;;;30.00;99.90;;;;;;4998975;28;20449;-72
2022/08/15 10:56:42;;;;;;;0.00;0.00;;;30.00;99.90;;;;;;4986753;28;20875;-73
2022/08/15 10:59:36;;;;;;;0.00;0.00;;;30.10;99.90;;;;;;4978154;28;20835;-73
2022/08/15 11:02:22;;;;;;;0.00;0.00;;;30.10;99.90;;;;;;4985105;28;20550;-71
2022/08/15 11:05:09;;;;;;;0.00;0.00;;;30.10;99.90;;;;;;4979264;28;20455;-72
2022/08/15 11:07:41;;;;;;;0.00;0.00;;;30.10;99.90;;;;;;4998299;28;20464;-71
2022/08/15 11:10:12;;;;;;;0.00;0.00;;;30.10;99.90;;;;;;4997801;28;20473;-71
2022/08/15 11:12:54;;;;;;;0.00;0.00;;;30.10;99.90;;;;;;4997785;28;20960;-71
2022/08/15 11:15:25;;;;;;;0.00;0.00;;;30.10;99.90;;;;;;4992303;28;20656;-71
2022/08/15 11:18:03;;;;;;;0.00;0.00;;;30.20;99.90;;;;;;4997708;28;20831;-70
2022/08/15 11:20:52;;;;;;;0.00;0.00;;;30.20;99.90;;;;;;4996726;28;20493;-76
2022/08/15 11:23:34;;;;;;;0.00;0.00;;;30.30;99.90;;;;;;4982308;28;21062;-75
2022/08/15 11:26:04;;;;;;;0.00;0.00;;;30.40;99.90;;;;;;4984872;28;20482;-75
2022/08/15 11:28:48;;;;;;;0.00;0.00;;;30.40;99.90;;;;;;4988708;28;21249;-74
2022/08/15 11:31:24;;;;;;;0.00;0.00;;;30.50;99.90;;;;;;4989971;28;20508;-75
2022/08/15 11:34:19;;;;;;;0.00;0.00;;;30.50;99.90;;;;;;4992774;28;20450;-74
2022/08/15 11:37:10;;;;;;;0.00;0.00;;;30.60;99.90;;;;;;4992859;28;20453;-75
2022/08/15 11:39:47;;;;;;;0.00;0.00;;;30.60;99.90;;;;;;4986099;28;20981;-74
2022/08/15 11:42:19;;;;;;;0.00;0.00;;;30.70;99.90;;;;;;4995733;28;20450;-77
2022/08/15 11:44:52;;;;;;;0.00;0.00;;;30.90;99.90;;;;;;4995143;28;20544;-77
2022/08/15 11:47:20;;;;;;;0.00;0.00;;;31.00;99.90;;;;;;4996518;28;20727;-76
2022/08/15 11:49:52;;;;;;;0.00;0.00;;;31.10;99.90;;;;;;4994193;28;20451;-76
2022/08/15 11:52:24;;;;;;;0.00;0.00;;;31.20;99.90;;;;;;4989941;28;20454;-75
2022/08/15 11:55:15;;;;;;;0.00;0.00;;;31.20;99.90;;;;;;4992759;28;20731;-74
2022/08/15 11:57:53;;;;;;;0.00;0.00;;;31.30;99.90;;;;;;4990240;28;20535;-76
2022/08/15 12:00:25;;;;;;;0.00;0.00;;;31.20;99.90;;;;;;4995468;28;20780;-75
2022/08/15 12:02:57;;;;;;;0.00;0.00;;;31.40;99.90;;;;;;4994356;28;20462;-75
2022/08/15 12:05:48;;;;;;;0.00;0.00;;;31.40;99.90;;;;;;4995353;28;20627;-75
2022/08/15 12:08:36;;;;;;;0.00;0.00;;;31.50;99.90;;;;;;4991485;28;20469;-76
2022/08/15 12:11:08;;;;;;;0.00;0.00;;;31.50;99.90;;;;;;4989665;28;20478;-76
2022/08/15 12:13:40;;;;;;;0.00;0.00;;;31.60;99.90;;;;;;4995423;28;20450;-78
2022/08/15 12:16:28;;;;;;;0.00;0.00;;;31.60;99.90;;;;;;5001727;28;20460;-78
2022/08/15 12:18:58;;;;;;;0.00;0.00;;;31.70;99.90;;;;;;4992188;28;20572;-78
2022/08/15 12:21:54;;;;;;;0.00;0.00;;;31.60;99.90;;;;;;4993345;28;20512;-78
2022/08/15 12:24:44;;;;;;;0.00;0.00;;;31.60;99.90;;;;;;4993901;28;20739;-78
2022/08/15 12:27:21;;;;;;;0.00;0.00;;;31.70;99.90;;;;;;4998364;28;20453;-78
2022/08/15 12:30:00;;;;;;;0.00;0.00;;;31.70;99.90;;;;;;4993072;28;20537;-77
2022/08/15 12:32:29;;;;;;;0.00;0.00;;;31.80;99.90;;;;;;4992826;28;20649;-73
2022/08/15 12:35:05;;;;;;;0.00;0.00;;;31.90;99.90;;;;;;4997749;28;20444;-73
2022/08/15 12:37:52;;;;;;;0.00;0.00;;;32.10;99.90;;;;;;4991637;28;20555;-72
2022/08/15 12:40:21;;;;;;;0.00;0.00;;;32.20;99.80;;;;;;4995656;28;20434;-73
2022/08/15 12:43:09;;;;;;;0.00;0.00;;;32.40;99.60;;;;;;4996285;28;20442;-70
2022/08/15 12:45:39;;;;;;;0.00;0.00;;;32.60;99.60;;;;;;4989278;28;20449;-70
2022/08/15 12:48:22;;;;;;;0.00;0.00;;;32.70;99.40;;;;;;4980351;28;21009;-70
2022/08/15 12:50:54;;;;;;;0.00;0.00;;;33.00;99.20;;;;;;4980069;28;20435;-69
2022/08/15 12:53:24;;;;;;;0.00;0.00;;;33.20;99.00;;;;;;4990129;28;20916;-70
2022/08/15 12:55:52;;;;;;;0.00;0.00;;;33.30;98.10;;;;;;4983174;28;20454;-69
2022/08/15 12:58:23;;;;;;;0.00;0.00;;;33.40;98.10;;;;;;4984193;28;20455;-70
2022/08/15 13:00:55;;;;;;;0.00;0.00;;;33.40;98.30;;;;;;4992107;28;20484;-70
2022/08/15 13:03:42;;;;;;;0.00;0.00;;;33.50;98.10;;;;;;4993723;28;20472;-70
2022/08/15 13:06:36;;;;;;;0.00;0.00;;;33.80;97.50;;;;;;4998019;28;20454;-70
2022/08/15 13:09:08;;;;;;;0.00;0.00;;;33.90;98.00;;;;;;4988478;28;20621;-69
2022/08/15 13:11:37;;;;;;;0.00;0.00;;;33.90;97.70;;;;;;4979688;28;20435;-70
2022/08/15 13:14:05;;;;;;;0.00;0.00;;;33.80;98.10;;;;;;4979739;28;20848;-70
2022/08/15 13:16:35;;;;;;;0.00;0.00;;;33.60;98.70;;;;;;4979678;28;20438;-70
2022/08/15 13:19:26;;;;;;;0.00;0.00;;;33.30;98.90;;;;;;4986983;28;20441;-69
2022/08/15 13:25:01;;;;;;;0.00;0.00;;;32.50;99.40;;;;;;4999375;28;20445;-69
2022/08/15 13:27:30;;;;;;;0.00;0.00;;;32.10;99.90;;;;;;4999286;28;20718;-69
2022/08/15 13:29:59;;;;;;;0.00;0.00;;;31.80;99.90;;;;;;4998989;28;20541;-69
2022/08/15 13:32:30;;;;;;;0.00;0.00;;;31.60;99.90;;;;;;4999226;28;20496;-69
2022/08/15 13:34:57;;;;;;;0.00;0.00;;;31.40;99.90;;;;;;4999270;28;20484;-74
2022/08/15 13:37:29;;;;;;;0.00;0.00;;;31.20;99.90;;;;;;4998980;28;20840;-72
2022/08/15 13:40:22;;;;;;;0.00;0.00;;;31.00;99.90;;;;;;4998344;28;20453;-72
2022/08/15 13:42:59;;;;;;;0.00;0.00;;;30.90;99.90;;;;;;4998042;28;20481;-73
2022/08/15 13:45:38;;;;;;;0.00;0.00;;;30.80;99.90;;;;;;4998451;28;20465;-73
2022/08/15 13:48:34;;;;;;;0.00;0.00;;;30.80;99.90;;;;;;4998315;28;20458;-74
2022/08/15 13:51:09;;;;;;;0.00;0.00;;;30.70;99.90;;;;;;4997978;28;20995;-70
2022/08/15 13:53:40;;;;;;;0.00;0.00;;;30.70;99.90;;;;;;4996100;28;20537;-69
2022/08/15 13:56:33;;;;;;;0.00;0.00;;;30.70;99.90;;;;;;4987650;28;20996;-69
2022/08/15 13:59:02;;;;;;;0.00;0.00;;;30.80;99.90;;;;;;4980273;28;20841;-69